Time;durP1;ratioP1;P1;durP2;ratioP2;P2;SDS_P1;SDS_P2;PMS_P1;PMS_P2;Temp;Humidity;BMP_temperature;BMP_pressure;BME280_temperature;BME280_humidity;BME280_pressure;Samples;Min_cycle;Max_cycle;Signal;HPM_P1;HPM_P2
2022/04/08 00:01:16;;;;;;;8.35;2.20;;;4.70;99.90;;;;;;4995452;28;20085;-88
2022/04/08 00:03:42;;;;;;;16.15;2.25;;;4.70;99.90;;;;;;4977728;28;20054;-87
2022/04/08 00:06:10;;;;;;;11.32;2.97;;;4.70;99.90;;;;;;4977730;28;20073;-88
2022/04/08 00:08:36;;;;;;;16.98;2.15;;;4.70;99.90;;;;;;4994831;28;20393;-88
2022/04/08 00:11:01;;;;;;;16.25;2.55;;;4.70;99.90;;;;;;4995157;28;20052;-89
2022/04/08 00:13:27;;;;;;;13.85;2.35;;;4.80;99.90;;;;;;5009792;28;20441;-88
2022/04/08 00:15:52;;;;;;;22.63;3.70;;;4.80;99.90;;;;;;4995050;28;20457;-88
2022/04/08 00:18:21;;;;;;;9.90;1.45;;;4.90;99.90;;;;;;5010125;28;20392;-87
2022/04/08 00:20:46;;;;;;;18.95;1.77;;;4.40;99.90;;;;;;4994876;28;20088;-87
2022/04/08 00:23:12;;;;;;;10.88;1.38;;;4.80;99.90;;;;;;5010471;28;20042;-87
2022/04/08 00:25:38;;;;;;;7.88;2.17;;;4.70;99.90;;;;;;4995228;28;20303;-87
2022/04/08 00:28:04;;;;;;;10.38;1.73;;;4.60;99.90;;;;;;4996071;28;20421;-88
2022/04/08 00:30:29;;;;;;;6.68;0.65;;;4.40;99.90;;;;;;4994110;28;20049;-89
2022/04/08 00:32:59;;;;;;;3.90;0.70;;;4.40;99.90;;;;;;4994082;28;20050;-88
2022/04/08 00:35:27;;;;;;;5.25;0.80;;;4.30;99.90;;;;;;4995972;28;20046;-88
2022/04/08 00:37:52;;;;;;;7.97;1.15;;;4.60;99.90;;;;;;4995847;28;20550;-88
2022/04/08 00:40:18;;;;;;;6.95;0.95;;;4.20;99.90;;;;;;4999198;28;20045;-88
2022/04/08 00:42:44;;;;;;;10.50;1.00;;;4.70;99.90;;;;;;5014387;28;20096;-88
2022/04/08 00:45:10;;;;;;;5.50;1.23;;;4.20;99.90;;;;;;4999053;28;20050;-88
2022/04/08 00:47:37;;;;;;;6.15;0.88;;;4.30;99.90;;;;;;4999818;28;20054;-88
2022/04/08 00:50:07;;;;;;;3.05;0.63;;;4.20;99.90;;;;;;4982685;28;20109;-88
2022/04/08 00:52:35;;;;;;;7.22;0.90;;;4.10;99.90;;;;;;5002035;28;20058;-87
2022/04/08 00:55:03;;;;;;;4.47;0.77;;;4.10;99.90;;;;;;5001135;28;20048;-89
2022/04/08 00:57:30;;;;;;;4.68;0.68;;;4.10;99.90;;;;;;5003029;28;20057;-86
2022/04/08 00:59:56;;;;;;;6.25;0.82;;;4.20;99.90;;;;;;5002836;28;20047;-88
2022/04/08 01:02:21;;;;;;;2.10;0.75;;;4.80;99.90;;;;;;5019880;28;20047;-88
2022/04/08 01:04:47;;;;;;;7.07;1.60;;;4.10;99.90;;;;;;5020411;28;20041;-88
2022/04/08 01:07:16;;;;;;;6.88;1.40;;;4.00;99.90;;;;;;5020646;28;20054;-87
2022/04/08 01:09:42;;;;;;;8.55;1.50;;;3.90;99.90;;;;;;5005490;28;20054;-87
2022/04/08 01:12:10;;;;;;;7.60;1.17;;;3.80;99.90;;;;;;4997298;28;20046;-88
2022/04/08 01:14:38;;;;;;;4.20;1.40;;;3.90;99.90;;;;;;4998402;28;20054;-88
2022/04/08 01:17:04;;;;;;;7.75;1.55;;;3.90;99.90;;;;;;4997728;28;20054;-88
2022/04/08 01:19:30;;;;;;;9.45;1.73;;;3.80;99.90;;;;;;4997759;28;20057;-88
2022/04/08 01:21:56;;;;;;;8.68;1.10;;;3.90;99.90;;;;;;4996271;28;20104;-88
2022/04/08 01:24:23;;;;;;;11.88;2.38;;;3.80;99.90;;;;;;4980147;28;20038;-89
2022/04/08 01:26:51;;;;;;;10.60;1.75;;;3.80;99.90;;;;;;4997137;28;20646;-89
2022/04/08 01:29:16;;;;;;;10.55;1.65;;;3.60;99.90;;;;;;4996436;28;20043;-88
2022/04/08 01:31:44;;;;;;;9.02;1.00;;;3.50;99.90;;;;;;4995978;28;20048;-89
2022/04/08 01:34:10;;;;;;;10.98;1.45;;;3.40;99.90;;;;;;4995817;28;20051;-87
2022/04/08 01:36:37;;;;;;;6.30;0.85;;;3.30;99.90;;;;;;4997094;28;20390;-87
2022/04/08 01:39:03;;;;;;;5.20;1.40;;;3.20;99.90;;;;;;4997418;28;20401;-88
2022/04/08 01:43:58;;;;;;;7.80;0.98;;;3.10;99.90;;;;;;5165605;22;20064;-85
2022/04/08 01:46:24;;;;;;;6.88;1.45;;;3.10;99.90;;;;;;5093980;28;20052;-85
2022/04/08 01:48:54;;;;;;;8.02;1.50;;;3.20;99.90;;;;;;5089006;28;20078;-85
2022/04/08 01:51:21;;;;;;;9.57;1.58;;;3.10;99.90;;;;;;5093919;28;20051;-85
2022/04/08 01:53:47;;;;;;;13.35;2.22;;;3.10;99.90;;;;;;5093926;28;20082;-85
2022/04/08 01:56:13;;;;;;;7.95;1.45;;;3.10;99.90;;;;;;5092958;28;20064;-85
2022/04/08 01:58:39;;;;;;;14.27;1.83;;;3.10;99.90;;;;;;5078903;28;20040;-85
2022/04/08 02:01:05;;;;;;;12.98;1.90;;;3.20;99.90;;;;;;5095316;28;20037;-84
2022/04/08 02:03:33;;;;;;;12.50;1.73;;;3.10;99.90;;;;;;5089565;28;20100;-84
2022/04/08 02:05:59;;;;;;;11.68;1.60;;;3.10;99.90;;;;;;5097345;28;20096;-85
2022/04/08 02:08:25;;;;;;;15.52;2.28;;;3.10;99.90;;;;;;5099986;28;20105;-85
2022/04/08 02:10:53;;;;;;;16.85;3.55;;;3.10;99.90;;;;;;5097493;28;20037;-85
2022/04/08 02:13:19;;;;;;;10.02;1.88;;;3.00;99.90;;;;;;5097299;28;20075;-85
2022/04/08 02:15:46;;;;;;;13.95;1.98;;;3.00;99.90;;;;;;5097222;28;20024;-85
2022/04/08 02:18:12;;;;;;;8.23;2.28;;;3.20;99.90;;;;;;5094736;28;20108;-85
2022/04/08 02:20:38;;;;;;;12.18;2.78;;;3.10;99.90;;;;;;5094895;28;20071;-85
2022/04/08 02:23:04;;;;;;;17.90;2.40;;;3.00;99.90;;;;;;5096836;28;20032;-85
2022/04/08 02:25:31;;;;;;;14.63;2.38;;;2.90;99.90;;;;;;5093082;28;20048;-86
2022/04/08 02:27:57;;;;;;;6.70;1.73;;;3.00;99.90;;;;;;5086640;28;20123;-85
2022/04/08 02:30:25;;;;;;;8.77;1.85;;;3.00;99.90;;;;;;5094498;28;20047;-85
2022/04/08 02:32:51;;;;;;;11.27;3.08;;;3.00;99.90;;;;;;5096914;28;20027;-84
2022/04/08 02:35:16;;;;;;;11.88;2.10;;;3.00;99.90;;;;;;5093705;28;20050;-84
2022/04/08 02:37:42;;;;;;;10.48;1.80;;;3.00;99.90;;;;;;5093147;28;20096;-83
2022/04/08 02:40:08;;;;;;;7.20;1.50;;;3.20;99.90;;;;;;5076736;28;20086;-84
2022/04/08 02:42:34;;;;;;;14.00;2.72;;;3.40;99.90;;;;;;5089439;28;20048;-84
2022/04/08 02:45:00;;;;;;;6.65;1.15;;;3.40;99.90;;;;;;5086322;28;20043;-83
2022/04/08 02:47:25;;;;;;;13.05;1.33;;;3.10;99.90;;;;;;5086327;28;20045;-84
2022/04/08 02:49:51;;;;;;;10.70;2.05;;;2.80;99.90;;;;;;5084623;28;20473;-84
2022/04/08 02:52:17;;;;;;;8.45;1.45;;;2.70;99.90;;;;;;5063167;28;20041;-84
2022/04/08 02:54:42;;;;;;;11.85;1.50;;;2.70;99.90;;;;;;5069578;28;20029;-84
2022/04/08 02:57:08;;;;;;;16.75;1.60;;;2.90;99.90;;;;;;5055729;28;20120;-83
2022/04/08 02:59:33;;;;;;;6.72;1.48;;;2.60;99.90;;;;;;5070387;28;20116;-84
2022/04/08 03:01:59;;;;;;;9.65;4.20;;;2.70;99.90;;;;;;5073727;28;20433;-84
2022/04/08 03:04:25;;;;;;;8.38;1.50;;;2.70;99.90;;;;;;5056321;28;20092;-84
2022/04/08 03:06:52;;;;;;;11.52;1.45;;;2.80;99.90;;;;;;5048862;28;20044;-83
2022/04/08 03:09:17;;;;;;;7.10;1.25;;;2.70;99.90;;;;;;5068617;28;20064;-84
2022/04/08 03:11:43;;;;;;;8.07;1.83;;;2.90;99.90;;;;;;5070280;28;20037;-85
2022/04/08 03:14:08;;;;;;;12.40;2.03;;;2.60;99.90;;;;;;5045672;28;20052;-84
2022/04/08 03:16:34;;;;;;;11.55;1.77;;;2.40;99.90;;;;;;5065669;28;20037;-84
2022/04/08 03:19:00;;;;;;;29.40;3.03;;;2.30;99.90;;;;;;5054618;28;20104;-85
2022/04/08 03:21:27;;;;;;;20.98;3.05;;;2.20;99.90;;;;;;5073153;28;20063;-84
2022/04/08 03:23:53;;;;;;;21.45;2.58;;;2.20;99.90;;;;;;5068626;28;20071;-84
2022/04/08 03:26:19;;;;;;;11.85;2.15;;;2.20;99.90;;;;;;5073121;28;20021;-84
2022/04/08 03:28:44;;;;;;;11.52;1.60;;;2.20;99.90;;;;;;5056050;28;20100;-84
2022/04/08 03:31:11;;;;;;;25.70;3.75;;;2.10;99.90;;;;;;5070681;28;20076;-84
2022/04/08 03:33:38;;;;;;;13.70;1.95;;;2.00;99.90;;;;;;5074117;28;20049;-84
2022/04/08 03:36:04;;;;;;;11.10;2.55;;;2.30;99.90;;;;;;5074456;28;20041;-84
2022/04/08 03:38:33;;;;;;;7.03;1.60;;;2.00;99.90;;;;;;5046748;28;20045;-84
2022/04/08 03:40:59;;;;;;;12.32;1.70;;;2.00;99.90;;;;;;5083737;28;20135;-84
2022/04/08 03:43:25;;;;;;;12.43;2.25;;;2.10;99.90;;;;;;5113688;28;20056;-84
2022/04/08 03:45:51;;;;;;;10.65;1.77;;;2.10;99.90;;;;;;5092341;28;20040;-84
2022/04/08 03:48:16;;;;;;;16.42;2.28;;;2.10;99.90;;;;;;5097669;28;20034;-84
2022/04/08 03:50:42;;;;;;;20.48;1.98;;;2.00;99.90;;;;;;5116356;28;20068;-84
2022/04/08 03:53:10;;;;;;;17.60;3.05;;;1.90;99.90;;;;;;5115279;28;20027;-84
2022/04/08 03:55:36;;;;;;;12.25;2.20;;;1.80;99.90;;;;;;5116649;28;20047;-84
2022/04/08 03:58:02;;;;;;;16.60;2.70;;;1.80;99.90;;;;;;5099217;28;20069;-85
2022/04/08 04:00:28;;;;;;;22.50;3.13;;;1.80;99.90;;;;;;5112262;28;20044;-84
2022/04/08 04:02:53;;;;;;;22.90;3.45;;;1.80;99.90;;;;;;5095068;28;20044;-84
2022/04/08 04:05:19;;;;;;;15.10;3.00;;;2.00;99.90;;;;;;5116470;28;20142;-84
2022/04/08 04:07:44;;;;;;;10.13;2.50;;;2.20;99.90;;;;;;5115170;28;20043;-84
2022/04/08 04:10:14;;;;;;;19.10;3.28;;;2.50;99.90;;;;;;5109234;28;20073;-84
2022/04/08 04:12:41;;;;;;;17.88;3.05;;;2.60;99.90;;;;;;5093676;28;20059;-84
2022/04/08 04:15:08;;;;;;;17.50;2.60;;;2.80;99.90;;;;;;5110789;28;20036;-83
2022/04/08 04:17:33;;;;;;;15.60;2.85;;;2.90;99.90;;;;;;5106897;28;20070;-85
2022/04/08 04:19:59;;;;;;;13.95;3.47;;;3.00;99.90;;;;;;5111166;28;20039;-84
2022/04/08 04:22:24;;;;;;;14.02;2.83;;;3.00;99.90;;;;;;5111475;28;20044;-85
2022/04/08 04:24:50;;;;;;;15.63;2.70;;;2.90;99.90;;;;;;5100701;28;20036;-84
2022/04/08 04:27:18;;;;;;;10.52;2.50;;;2.80;99.90;;;;;;5104887;28;20075;-84
2022/04/08 04:29:44;;;;;;;9.50;1.73;;;2.60;99.90;;;;;;5112772;28;20062;-84
2022/04/08 04:32:09;;;;;;;10.00;2.10;;;2.50;99.90;;;;;;5113274;28;20028;-84
2022/04/08 04:34:36;;;;;;;11.27;1.85;;;2.40;99.90;;;;;;5110955;28;20088;-84
2022/04/08 04:37:08;;;;;;;8.93;2.67;;;2.30;99.90;;;;;;5113955;28;20048;-84
2022/04/08 04:39:34;;;;;;;8.30;1.33;;;2.20;99.90;;;;;;5113617;28;20024;-84
2022/04/08 04:42:00;;;;;;;4.85;1.60;;;2.20;99.90;;;;;;5110628;28;20043;-84
2022/04/08 04:44:28;;;;;;;12.45;1.63;;;2.10;99.90;;;;;;5080615;28;20047;-84
2022/04/08 04:46:55;;;;;;;5.63;1.50;;;2.00;99.90;;;;;;5114407;28;20040;-84
2022/04/08 04:49:21;;;;;;;8.20;1.60;;;1.90;99.90;;;;;;5104636;28;20040;-84
2022/04/08 04:51:51;;;;;;;3.75;1.73;;;1.90;99.90;;;;;;5110921;28;20100;-84
2022/04/08 04:54:17;;;;;;;7.70;3.00;;;1.90;99.90;;;;;;5097407;28;20052;-84
2022/04/08 04:56:43;;;;;;;4.35;1.50;;;1.80;99.90;;;;;;5078937;28;20064;-84
2022/04/08 04:59:09;;;;;;;3.67;1.23;;;1.80;99.90;;;;;;5110751;28;20040;-85
2022/04/08 05:01:35;;;;;;;8.32;1.67;;;1.90;99.90;;;;;;5114611;28;20072;-84
2022/04/08 05:04:03;;;;;;;17.80;2.70;;;1.80;99.90;;;;;;5095333;28;20051;-85
2022/04/08 05:06:29;;;;;;;10.70;2.20;;;1.80;99.90;;;;;;5093425;28;20044;-84
2022/04/08 05:08:54;;;;;;;10.45;2.33;;;2.00;99.90;;;;;;5095890;28;20055;-84
2022/04/08 05:11:20;;;;;;;5.15;1.42;;;1.90;99.90;;;;;;5112181;28;20054;-84
2022/04/08 05:13:46;;;;;;;7.43;1.77;;;1.90;99.90;;;;;;5088979;28;20043;-84
2022/04/08 05:16:11;;;;;;;2.97;1.77;;;2.00;99.90;;;;;;5111345;28;20024;-84
2022/04/08 05:18:37;;;;;;;6.93;1.35;;;2.00;99.90;;;;;;5114068;28;20040;-84
2022/04/08 05:21:03;;;;;;;8.50;2.47;;;2.10;99.90;;;;;;5111698;28;20047;-84
2022/04/08 05:23:29;;;;;;;8.07;2.08;;;1.90;99.90;;;;;;5095645;28;20027;-85
2022/04/08 05:25:56;;;;;;;8.02;2.58;;;2.00;99.90;;;;;;5118643;28;20071;-84
2022/04/08 05:28:22;;;;;;;7.55;1.80;;;2.00;99.90;;;;;;5112945;28;20161;-84
2022/04/08 05:30:47;;;;;;;3.22;1.60;;;2.00;99.90;;;;;;5099483;28;20036;-84
2022/04/08 05:33:13;;;;;;;7.32;2.28;;;2.20;99.90;;;;;;5117452;28;20055;-84
2022/04/08 05:35:38;;;;;;;5.05;1.75;;;2.20;99.90;;;;;;5094385;28;20052;-85
2022/04/08 05:38:04;;;;;;;7.40;1.85;;;2.30;99.90;;;;;;5092160;28;20079;-84
2022/04/08 05:40:30;;;;;;;5.57;1.55;;;2.40;99.90;;;;;;5099867;28;20032;-84
2022/04/08 05:42:55;;;;;;;8.48;2.03;;;2.60;99.90;;;;;;5099560;28;20044;-84
2022/04/08 05:45:21;;;;;;;5.78;2.10;;;2.80;99.90;;;;;;5113877;28;20024;-84
2022/04/08 05:47:47;;;;;;;7.53;2.00;;;2.90;99.90;;;;;;5117129;28;20078;-84
2022/04/08 05:50:14;;;;;;;6.28;1.98;;;3.10;99.90;;;;;;5116288;28;20070;-84
2022/04/08 05:52:41;;;;;;;17.02;2.75;;;3.10;99.90;;;;;;5079136;28;20039;-84
2022/04/08 05:55:07;;;;;;;8.07;2.20;;;3.10;99.90;;;;;;5087457;28;20100;-84
2022/04/08 05:57:35;;;;;;;4.90;1.60;;;3.00;99.90;;;;;;5079659;28;20033;-84
2022/04/08 06:00:01;;;;;;;9.82;1.95;;;3.10;99.90;;;;;;5084249;28;20055;-84
2022/04/08 06:02:26;;;;;;;17.70;2.83;;;3.00;99.90;;;;;;5076625;28;20094;-84
2022/04/08 06:04:52;;;;;;;13.75;3.33;;;3.00;99.90;;;;;;5075441;28;20581;-84
2022/04/08 06:07:18;;;;;;;13.85;2.10;;;3.10;99.90;;;;;;5059835;28;20107;-85
2022/04/08 06:09:43;;;;;;;12.88;2.70;;;3.10;99.90;;;;;;5053849;28;20047;-85
2022/04/08 06:12:09;;;;;;;11.73;2.35;;;3.20;99.90;;;;;;5073394;28;20048;-84
2022/04/08 06:14:34;;;;;;;11.70;2.38;;;3.20;99.90;;;;;;5055418;28;20112;-84
2022/04/08 06:17:00;;;;;;;10.43;2.17;;;3.30;99.90;;;;;;5088575;28;20039;-85
2022/04/08 06:19:25;;;;;;;6.78;1.70;;;3.60;99.90;;;;;;5078973;28;20040;-84
2022/04/08 06:21:51;;;;;;;7.78;2.72;;;4.20;99.90;;;;;;5082558;28;20033;-84
2022/04/08 06:24:16;;;;;;;9.82;2.20;;;4.70;99.90;;;;;;5070420;28;20045;-85
2022/04/08 06:26:42;;;;;;;5.57;1.80;;;5.10;99.90;;;;;;5075065;28;20087;-84
2022/04/08 06:29:09;;;;;;;5.60;1.10;;;5.30;99.90;;;;;;5076362;28;20041;-84
2022/04/08 06:31:34;;;;;;;7.75;2.45;;;5.50;99.90;;;;;;5055585;28;20049;-85
2022/04/08 06:34:01;;;;;;;8.05;1.30;;;5.60;99.90;;;;;;5057050;28;20110;-84
2022/04/08 06:36:28;;;;;;;5.10;1.23;;;5.70;99.90;;;;;;5083404;28;20055;-84
2022/04/08 06:38:54;;;;;;;4.93;1.48;;;5.90;99.90;;;;;;5083051;28;20037;-84
2022/04/08 06:41:21;;;;;;;3.72;1.13;;;6.00;99.90;;;;;;5085220;28;20043;-84
2022/04/08 06:43:46;;;;;;;5.75;1.40;;;6.20;99.90;;;;;;5067023;28;20075;-84
2022/04/08 06:46:12;;;;;;;2.63;1.40;;;6.30;99.90;;;;;;5083928;28;20048;-84
2022/04/08 06:48:38;;;;;;;1.65;0.70;;;6.40;99.90;;;;;;5084578;28;20123;-84
2022/04/08 06:51:04;;;;;;;1.20;0.73;;;6.60;99.90;;;;;;5082047;28;20071;-84
2022/04/08 06:53:30;;;;;;;4.82;1.30;;;6.60;99.90;;;;;;5073498;28;20116;-84
2022/04/08 06:55:56;;;;;;;5.25;1.00;;;6.80;99.90;;;;;;5069469;28;20075;-84
2022/04/08 06:58:26;;;;;;;3.05;1.10;;;6.90;99.90;;;;;;5070024;28;20503;-84
2022/04/08 07:00:54;;;;;;;3.70;0.75;;;7.10;99.90;;;;;;5067547;28;20049;-84
2022/04/08 07:03:20;;;;;;;6.10;1.23;;;7.40;99.90;;;;;;5067298;28;20037;-84
2022/04/08 07:05:48;;;;;;;3.50;1.00;;;7.20;99.90;;;;;;5069782;28;20088;-84
2022/04/08 07:08:14;;;;;;;3.20;0.90;;;7.10;99.90;;;;;;5066029;28;20087;-83
2022/04/08 07:10:40;;;;;;;7.05;0.98;;;7.30;99.90;;;;;;5071715;28;20072;-84
2022/04/08 07:13:07;;;;;;;6.97;1.42;;;7.60;99.90;;;;;;5048028;28;20033;-83
2022/04/08 07:15:32;;;;;;;2.97;1.30;;;7.90;99.90;;;;;;5045290;28;20175;-84
2022/04/08 07:17:58;;;;;;;6.43;1.05;;;8.10;99.90;;;;;;5043607;28;20080;-84
2022/04/08 07:20:24;;;;;;;12.45;2.42;;;8.20;99.90;;;;;;5057847;28;20125;-84
2022/04/08 07:22:50;;;;;;;5.00;0.90;;;8.30;99.90;;;;;;5057925;28;20045;-84
2022/04/08 07:25:16;;;;;;;7.30;1.17;;;8.20;99.90;;;;;;5057558;28;20124;-84
2022/04/08 07:27:47;;;;;;;4.47;1.30;;;8.00;99.90;;;;;;5058291;28;20087;-84
2022/04/08 07:30:13;;;;;;;3.22;1.15;;;7.40;99.90;;;;;;5057488;28;20049;-84
2022/04/08 07:32:39;;;;;;;8.52;1.15;;;7.20;99.90;;;;;;5056954;28;20106;-84
2022/04/08 07:35:05;;;;;;;3.35;1.13;;;7.10;99.90;;;;;;5055747;28;20041;-84
2022/04/08 07:37:32;;;;;;;7.40;1.30;;;6.90;99.90;;;;;;5055129;28;20072;-84
2022/04/08 07:39:58;;;;;;;7.80;1.95;;;6.60;99.90;;;;;;5060905;28;20190;-84
2022/04/08 07:42:25;;;;;;;5.22;0.90;;;6.40;99.90;;;;;;5070319;28;20053;-83
2022/04/08 07:44:50;;;;;;;5.85;1.52;;;6.30;99.90;;;;;;5067772;28;20044;-84
2022/04/08 07:47:18;;;;;;;3.85;1.00;;;6.10;99.90;;;;;;5052068;28;20049;-84
2022/04/08 07:49:44;;;;;;;6.18;1.13;;;6.00;99.90;;;;;;5081199;28;20060;-84
2022/04/08 07:52:09;;;;;;;4.20;1.13;;;6.10;99.90;;;;;;5079124;28;20060;-83
2022/04/08 07:54:35;;;;;;;3.17;0.93;;;6.40;99.90;;;;;;5066212;28;20061;-84
2022/04/08 07:57:00;;;;;;;4.15;0.85;;;7.30;99.90;;;;;;5066851;28;20123;-84
2022/04/08 07:59:26;;;;;;;2.45;1.25;;;8.20;99.90;;;;;;5068133;28;20045;-84
2022/04/08 08:01:51;;;;;;;5.32;1.15;;;8.70;99.90;;;;;;5070718;28;20049;-84
2022/04/08 08:04:17;;;;;;;10.93;1.42;;;9.20;99.90;;;;;;5068043;28;20045;-84
2022/04/08 08:06:42;;;;;;;7.70;1.83;;;9.10;99.90;;;;;;5067544;28;20068;-84
2022/04/08 08:09:08;;;;;;;2.92;0.85;;;8.80;99.90;;;;;;5066247;28;20074;-84
2022/04/08 08:11:34;;;;;;;3.45;0.75;;;8.40;99.90;;;;;;5068966;28;20040;-85
2022/04/08 08:13:59;;;;;;;1.20;0.55;;;8.60;99.90;;;;;;5075256;28;20311;-84
2022/04/08 08:16:25;;;;;;;4.15;1.17;;;9.00;99.90;;;;;;5072114;28;20036;-84
2022/04/08 08:18:56;;;;;;;4.05;1.27;;;9.40;99.90;;;;;;5074955;28;20045;-83
2022/04/08 08:21:22;;;;;;;11.18;1.98;;;9.90;99.90;;;;;;5062712;28;20108;-83
2022/04/08 08:23:47;;;;;;;7.20;1.10;;;10.20;99.90;;;;;;5078736;28;20049;-84
2022/04/08 08:26:13;;;;;;;7.10;1.35;;;10.20;99.90;;;;;;5077077;28;20102;-83
2022/04/08 08:28:39;;;;;;;4.47;1.42;;;10.30;99.90;;;;;;5083757;28;20052;-84
2022/04/08 08:31:04;;;;;;;6.25;1.58;;;10.20;99.90;;;;;;5080841;28;20043;-83
2022/04/08 08:33:30;;;;;;;6.57;1.10;;;10.20;99.90;;;;;;5082614;28;20036;-83
2022/04/08 08:35:56;;;;;;;7.70;1.50;;;10.50;99.90;;;;;;5067384;28;20143;-84
2022/04/08 08:38:22;;;;;;;9.63;1.58;;;10.50;99.90;;;;;;5084760;28;20056;-84
2022/04/08 08:40:48;;;;;;;8.48;1.42;;;10.30;99.90;;;;;;5089756;28;20040;-84
2022/04/08 08:43:17;;;;;;;7.25;1.58;;;10.30;99.90;;;;;;5067743;28;20074;-83
2022/04/08 08:45:48;;;;;;;5.35;1.50;;;10.60;99.90;;;;;;5073598;28;20049;-84
2022/04/08 08:48:15;;;;;;;3.45;1.00;;;11.30;99.90;;;;;;5076281;28;20025;-84
2022/04/08 08:50:52;;;;;;;4.78;1.20;;;11.90;99.90;;;;;;5049056;28;20049;-84
2022/04/08 08:53:19;;;;;;;8.95;1.52;;;11.50;99.90;;;;;;5059569;28;20483;-85
2022/04/08 08:55:48;;;;;;;7.13;1.00;;;11.00;99.90;;;;;;5078814;28;20064;-85
2022/04/08 08:58:15;;;;;;;11.43;1.77;;;10.30;99.90;;;;;;5081342;28;20081;-84
2022/04/08 09:00:40;;;;;;;4.05;1.10;;;9.70;99.90;;;;;;5080498;28;20115;-84
2022/04/08 09:03:07;;;;;;;4.60;1.00;;;9.40;99.90;;;;;;5063012;28;20130;-84
2022/04/08 09:05:46;;;;;;;7.80;1.30;;;9.10;99.90;;;;;;5082775;28;20053;-85
2022/04/08 09:08:15;;;;;;;2.80;0.70;;;9.20;99.90;;;;;;5085764;28;20044;-84
2022/04/08 09:10:47;;;;;;;4.18;1.30;;;9.40;99.90;;;;;;5063687;28;20037;-84
2022/04/08 09:13:20;;;;;;;7.65;1.10;;;9.40;99.90;;;;;;5064117;28;20198;-85
2022/04/08 09:15:54;;;;;;;5.30;1.27;;;9.40;99.90;;;;;;5063766;28;20112;-85
2022/04/08 09:18:20;;;;;;;5.53;1.05;;;9.40;99.90;;;;;;5044183;28;20049;-85
2022/04/08 09:20:49;;;;;;;6.13;1.40;;;9.50;99.90;;;;;;5066216;28;20052;-85
2022/04/08 09:23:16;;;;;;;5.68;1.55;;;9.80;99.90;;;;;;5067525;28;20064;-85
2022/04/08 09:25:42;;;;;;;3.00;0.90;;;10.30;99.90;;;;;;5071802;28;20518;-84
2022/04/08 09:28:09;;;;;;;6.28;1.30;;;10.70;99.90;;;;;;5070125;28;20037;-84
2022/04/08 09:30:34;;;;;;;3.53;0.70;;;11.00;99.90;;;;;;5071056;28;20044;-85
2022/04/08 09:33:18;;;;;;;3.83;0.75;;;11.00;99.90;;;;;;5080523;28;20057;-83
2022/04/08 09:35:45;;;;;;;7.55;1.00;;;10.70;99.90;;;;;;5068547;28;20044;-84
2022/04/08 09:38:10;;;;;;;6.45;1.17;;;10.70;99.90;;;;;;5085270;28;20085;-83
2022/04/08 09:40:42;;;;;;;7.22;1.25;;;10.50;99.90;;;;;;5066975;28;20052;-83
2022/04/08 09:43:08;;;;;;;5.40;1.40;;;10.60;99.90;;;;;;5083992;28;20058;-83
2022/04/08 09:45:35;;;;;;;9.63;2.00;;;10.90;99.90;;;;;;5078517;28;20037;-84
2022/04/08 09:48:05;;;;;;;5.45;1.17;;;11.00;99.90;;;;;;5069078;28;20041;-83
2022/04/08 09:50:31;;;;;;;6.57;1.08;;;10.70;99.90;;;;;;5083037;28;20049;-83
2022/04/08 09:55:35;;;;;;;8.13;1.25;;;9.30;99.90;;;;;;5093412;22;20044;-83
2022/04/08 09:58:04;;;;;;;6.50;1.75;;;8.90;99.90;;;;;;5042444;28;20033;-83
2022/04/08 10:00:32;;;;;;;9.20;1.90;;;8.40;99.90;;;;;;5044943;28;20033;-83
2022/04/08 10:03:01;;;;;;;11.13;2.42;;;8.50;99.90;;;;;;5036480;28;20066;-82
2022/04/08 10:05:27;;;;;;;15.63;1.90;;;8.50;99.90;;;;;;5037274;28;20050;-83
2022/04/08 10:07:54;;;;;;;5.38;1.50;;;8.60;99.90;;;;;;5022217;28;20082;-83
2022/04/08 10:10:51;;;;;;;6.78;1.45;;;8.60;99.90;;;;;;5017582;28;20050;-83
2022/04/08 10:13:51;;;;;;;15.30;1.38;;;8.80;99.90;;;;;;5040777;28;20030;-83
2022/04/08 10:16:18;;;;;;;6.05;1.33;;;9.10;99.90;;;;;;5023855;28;20047;-86
2022/04/08 10:18:45;;;;;;;7.97;1.83;;;9.50;99.90;;;;;;5025399;28;20050;-86
2022/04/08 10:21:11;;;;;;;10.38;1.60;;;9.70;99.90;;;;;;5017268;28;20054;-86
2022/04/08 10:23:45;;;;;;;6.18;0.90;;;10.10;99.90;;;;;;5025957;28;20065;-86
2022/04/08 10:26:22;;;;;;;9.13;1.67;;;10.60;99.90;;;;;;5025634;28;20084;-86
2022/04/08 10:28:50;;;;;;;4.95;1.13;;;10.80;99.90;;;;;;5026637;28;20055;-86
2022/04/08 10:31:26;;;;;;;4.43;0.85;;;11.00;99.90;;;;;;5044596;28;20126;-86
2022/04/08 10:33:59;;;;;;;;;;;11.00;99.90;;;;;;5027975;28;20095;-86
2022/04/08 10:36:38;;;;;;;7.47;1.27;;;11.00;99.90;;;;;;5027459;28;20012;-86
2022/04/08 10:39:16;;;;;;;4.32;0.75;;;11.10;98.50;;;;;;5026947;28;20025;-85
2022/04/08 10:42:03;;;;;;;6.00;1.35;;;11.10;99.90;;;;;;5041075;28;20542;-85
2022/04/08 10:44:41;;;;;;;5.88;0.98;;;11.10;99.90;;;;;;5020921;28;20109;-85
2022/04/08 10:47:15;;;;;;;5.00;1.05;;;11.20;99.90;;;;;;5017080;28;20046;-85
2022/04/08 10:49:51;;;;;;;5.28;1.55;;;11.20;94.10;;;;;;5036443;28;20115;-86
2022/04/08 10:52:21;;;;;;;7.65;1.00;;;11.30;95.20;;;;;;5015070;28;20057;-85
2022/04/08 10:54:48;;;;;;;10.23;1.55;;;11.40;96.50;;;;;;5028234;28;20065;-83
2022/04/08 10:57:13;;;;;;;6.78;1.10;;;11.80;93.70;;;;;;5034419;28;20040;-83
2022/04/08 10:59:39;;;;;;;5.22;0.98;;;12.10;79.90;;;;;;5036695;28;20038;-84
2022/04/08 11:02:06;;;;;;;5.25;0.70;;;12.20;81.00;;;;;;5034125;28;20041;-83
2022/04/08 11:04:33;;;;;;;6.93;1.00;;;12.30;85.50;;;;;;5018485;28;20128;-83
2022/04/08 11:07:06;;;;;;;6.97;1.05;;;12.40;78.40;;;;;;5032907;28;20104;-83
2022/04/08 11:09:32;;;;;;;3.55;1.08;;;12.20;94.30;;;;;;5032021;28;20052;-83
2022/04/08 11:11:58;;;;;;;5.38;0.98;;;12.30;87.90;;;;;;5030428;28;20073;-83
2022/04/08 11:14:26;;;;;;;5.43;1.00;;;12.40;81.80;;;;;;5030623;28;20045;-84
2022/04/08 11:16:51;;;;;;;8.20;1.38;;;12.30;72.10;;;;;;5029323;28;20101;-83
2022/04/08 11:19:20;;;;;;;8.80;1.45;;;12.10;95.60;;;;;;5028656;28;20050;-83
2022/04/08 11:21:47;;;;;;;3.90;0.85;;;12.20;93.10;;;;;;5029571;28;20045;-83
2022/04/08 11:24:15;;;;;;;7.70;1.05;;;12.60;93.20;;;;;;5027126;28;20038;-83
2022/04/08 11:26:52;;;;;;;10.27;1.45;;;12.40;95.70;;;;;;5025838;28;20041;-83
2022/04/08 11:29:19;;;;;;;9.30;1.60;;;12.30;98.10;;;;;;5024279;28;20080;-83
2022/04/08 11:31:46;;;;;;;13.25;2.15;;;11.60;99.00;;;;;;5023347;28;20481;-83
2022/04/08 11:34:15;;;;;;;7.38;1.42;;;10.70;99.90;;;;;;5025154;28;20374;-83
2022/04/08 11:36:42;;;;;;;8.27;1.73;;;9.80;99.90;;;;;;5019138;28;20057;-83
2022/04/08 11:39:10;;;;;;;9.82;1.00;;;8.60;99.90;;;;;;5019176;28;20404;-82
2022/04/08 11:41:37;;;;;;;2.50;0.98;;;8.40;99.90;;;;;;5015402;28;20056;-84
2022/04/08 11:44:04;;;;;;;8.05;1.13;;;8.60;99.90;;;;;;4996730;28;20041;-82
2022/04/08 11:46:30;;;;;;;7.20;0.88;;;8.50;99.90;;;;;;5015191;28;20065;-84
2022/04/08 11:48:55;;;;;;;3.75;0.80;;;8.50;99.90;;;;;;5015837;28;20034;-84
2022/04/08 11:51:21;;;;;;;3.33;0.90;;;8.30;99.90;;;;;;5014208;28;20396;-84
2022/04/08 11:53:50;;;;;;;3.90;0.98;;;8.40;99.90;;;;;;5014565;28;20045;-84
2022/04/08 11:56:24;;;;;;;5.20;1.35;;;8.40;99.90;;;;;;5019636;28;20053;-84
2022/04/08 11:59:11;;;;;;;8.18;1.25;;;8.40;99.90;;;;;;5018707;28;20112;-84
2022/04/08 12:01:39;;;;;;;8.73;1.17;;;8.50;99.90;;;;;;5020326;28;20038;-84
2022/04/08 12:04:11;;;;;;;6.18;1.35;;;8.70;99.90;;;;;;4997206;28;20110;-84
2022/04/08 12:06:48;;;;;;;9.20;1.20;;;9.20;99.90;;;;;;5014047;28;20149;-84
2022/04/08 12:09:16;;;;;;;5.60;1.25;;;9.70;99.90;;;;;;5016887;28;20042;-84
2022/04/08 12:11:43;;;;;;;7.00;1.05;;;10.10;99.90;;;;;;5017191;28;20054;-84
2022/04/08 12:14:10;;;;;;;6.43;1.00;;;10.40;99.90;;;;;;5017880;28;20100;-85
2022/04/08 12:16:40;;;;;;;5.40;1.00;;;10.80;99.90;;;;;;5033210;28;20068;-84
2022/04/08 12:19:09;;;;;;;6.72;1.25;;;11.00;99.90;;;;;;5036782;28;20038;-84
2022/04/08 12:21:39;;;;;;;5.05;1.20;;;11.00;99.90;;;;;;5037293;28;20049;-84
2022/04/08 12:24:07;;;;;;;5.78;1.45;;;11.50;99.90;;;;;;5037760;28;20499;-84
2022/04/08 12:26:35;;;;;;;7.30;1.38;;;11.80;99.90;;;;;;5036826;28;20404;-84
2022/04/08 12:29:12;;;;;;;5.05;1.40;;;11.90;99.90;;;;;;5036754;28;20041;-84
2022/04/08 12:31:45;;;;;;;9.60;1.42;;;11.90;99.90;;;;;;5044548;28;20064;-84
2022/04/08 12:34:11;;;;;;;5.93;1.23;;;12.10;99.90;;;;;;5051087;28;20046;-84
2022/04/08 12:36:37;;;;;;;6.50;1.00;;;12.00;99.90;;;;;;5052745;28;20064;-84
2022/04/08 12:39:03;;;;;;;5.40;1.45;;;12.00;99.90;;;;;;5034354;28;20053;-84
2022/04/08 12:41:29;;;;;;;5.03;0.63;;;11.40;99.90;;;;;;5046143;28;20049;-84
2022/04/08 12:43:57;;;;;;;3.85;0.90;;;11.30;99.90;;;;;;5027709;28;20071;-84
2022/04/08 12:46:23;;;;;;;7.00;1.40;;;11.50;99.90;;;;;;5044766;28;20416;-84
2022/04/08 12:48:48;;;;;;;5.15;1.20;;;11.70;99.60;;;;;;5037660;28;20046;-84
2022/04/08 12:51:14;;;;;;;6.32;1.10;;;12.20;92.90;;;;;;5025268;28;20090;-84
2022/04/08 12:53:40;;;;;;;6.38;1.63;;;12.20;95.30;;;;;;5044209;28;20119;-84
2022/04/08 12:56:05;;;;;;;4.90;0.90;;;12.30;82.70;;;;;;5045522;28;20068;-84
2022/04/08 12:58:31;;;;;;;10.35;1.50;;;12.20;85.60;;;;;;5048776;28;20084;-84